.
WxDataArchive / Data Records for 2008-03-13
2008-03-12 March 2008 2008-03-14

Data Records for Thursday, 13 March 2008

Time	Temp	Chill	HIndex	Humid	Dewpt	 Wind 	HiWind	WindDir	Rain 	Barom 
-----	----	-----	------	-----	-----	------	------	-------	-----	----- 
00:00	32.5	27.7	32.5	79	26.7	5	11	112	0.00	29.785 
00:05	32.5	27.7	32.5	79	26.7	5	10	112	0.00	29.783 
00:10	32.4	28.5	32.4	79	26.6	4	10	112	0.00	29.781 
00:15	32.4	32.4	32.4	80	26.9	3	7	112	0.00	29.779 
00:20	32.2	28.3	32.2	80	26.7	4	8	112	0.00	29.776 
00:25	32.2	28.3	32.2	80	26.7	4	11	112	0.00	29.772 
00:30	32.1	28.2	32.1	80	26.6	4	7	112	0.00	29.770 
00:35	32.1	32.1	32.1	80	26.6	3	5	112	0.00	29.769 
00:40	31.9	28.0	31.9	80	26.4	4	9	112	0.00	29.766 
00:45	31.9	28.0	31.9	80	26.4	4	7	90	0.00	29.763 
00:50	31.9	28.0	31.9	80	26.4	4	7	112	0.00	29.760 
00:55	31.9	28.0	31.9	81	26.7	4	10	112	0.00	29.756 
01:00	31.9	31.9	31.9	81	26.7	2	5	112	0.00	29.754 
01:05	31.8	31.8	31.8	81	26.6	3	7	112	0.00	29.753 
01:10	31.8	27.8	31.8	81	26.6	4	7	112	0.00	29.746 
01:15	31.8	31.8	31.8	81	26.6	3	6	90	0.00	29.744 
01:20	31.8	27.8	31.8	81	26.6	4	9	112	0.00	29.741 
01:25	31.8	27.8	31.8	81	26.6	4	9	112	0.00	29.737 
01:30	31.9	28.0	31.9	81	26.7	4	8	112	0.00	29.731 
01:35	31.8	27.8	31.8	81	26.6	4	8	112	0.00	29.727 
01:40	31.8	27.8	31.8	81	26.6	4	8	112	0.00	29.724 
01:45	31.8	31.8	31.8	81	26.6	3	7	112	0.00	29.722 
01:50	31.8	31.8	31.8	82	26.9	3	6	112	0.00	29.722 
01:55	31.8	27.8	31.8	82	26.9	4	9	112	0.00	29.711 
02:00	31.8	26.8	31.8	82	26.9	5	8	112	0.00	29.707 
02:05	31.8	27.8	31.8	82	26.9	4	7	112	0.00	29.702 
02:10	31.8	27.8	31.8	82	26.9	4	7	112	0.00	29.698 
02:15	31.9	28.0	31.9	82	27.0	4	7	112	0.00	29.693 
02:20	31.9	28.0	31.9	82	27.0	4	7	112	0.00	29.690 
02:25	31.9	28.0	31.9	82	27.0	4	7	112	0.00	29.682 
02:30	31.8	31.8	31.8	82	26.9	3	6	112	0.00	29.678 
02:35	31.9	31.9	31.9	82	27.0	3	5	112	0.00	29.676 
02:40	31.9	31.9	31.9	82	27.0	3	6	112	0.00	29.672 
02:45	31.9	31.9	31.9	82	27.0	2	4	112	0.00	29.668 
02:50	31.9	31.9	31.9	82	27.0	2	5	112	0.00	29.665 
02:55	31.9	31.9	31.9	83	27.3	2	5	112	0.00	29.661 
03:00	31.9	31.9	31.9	83	27.3	1	3	112	0.00	29.671 
03:05	31.9	31.9	31.9	83	27.3	1	4	90	0.00	29.659 
03:10	31.9	31.9	31.9	83	27.3	1	3	90	0.00	29.656 
03:15	31.8	31.8	31.8	83	27.2	2	3	90	0.00	29.652 
03:20	31.8	31.8	31.8	83	27.2	0	3	90	0.00	29.651 
03:25	31.8	31.8	31.8	83	27.2	1	3	90	0.00	29.645 
03:30	31.8	31.8	31.8	83	27.2	1	5	90	0.00	29.642 
03:35	31.8	31.8	31.8	83	27.2	1	3	112	0.00	29.642 
03:40	31.8	31.8	31.8	83	27.2	0	2	112	0.00	29.641 
03:45	31.8	31.8	31.8	83	27.2	1	3	112	0.00	29.633 
03:50	31.8	31.8	31.8	83	27.2	0	2	112	0.00	29.635 
03:55	31.6	31.6	31.6	84	27.3	1	2	112	0.00	29.628 
04:00	31.6	31.6	31.6	84	27.3	1	2	112	0.00	29.626 
04:05	31.6	31.6	31.6	84	27.3	1	3	112	0.00	29.621 
04:10	31.5	31.5	31.5	84	27.2	1	3	112	0.00	29.616 
04:15	31.5	31.5	31.5	84	27.2	1	3	112	0.00	29.614 
04:20	31.5	31.5	31.5	85	27.5	1	3	112	0.00	29.612 
04:25	31.5	31.5	31.5	85	27.5	1	2	112	0.00	29.611 
04:30	31.6	31.6	31.6	85	27.6	0	1	112	0.00	29.611 
04:35	31.5	31.5	31.5	85	27.5	0	2	112	0.00	29.612 
04:40	31.5	31.5	31.5	85	27.5	1	3	112	0.00	29.610 
04:45	31.5	31.5	31.5	85	27.5	0	2	112	0.00	29.605 
04:50	31.5	31.5	31.5	85	27.5	0	2	112	0.00	29.603 
04:55	31.5	31.5	31.5	85	27.5	0	2	112	0.00	29.606 
05:00	31.3	31.3	31.3	85	27.3	0	0	---	0.00	29.603 
05:05	31.3	31.3	31.3	86	27.6	0	1	112	0.00	29.603 
05:10	31.3	31.3	31.3	86	27.6	0	0	---	0.00	29.601 
05:15	31.2	31.2	31.2	86	27.5	0	1	112	0.00	29.602 
05:20	31.2	31.2	31.2	86	27.5	0	1	112	0.00	29.602 
05:25	31.0	31.0	31.0	86	27.3	0	0	---	0.00	29.600 
05:30	31.3	31.3	31.3	87	27.9	0	3	112	0.00	29.599 
05:35	31.9	31.9	31.9	87	28.5	0	1	112	0.00	29.599 
05:40	32.4	32.4	32.4	87	29.0	0	1	112	0.00	29.599 
05:45	33.1	33.1	33.1	87	29.7	0	2	112	0.00	29.601 
05:50	34.0	34.0	34.0	87	30.5	0	3	248	0.00	29.597 
05:55	34.7	34.7	34.7	86	30.9	0	2	248	0.00	29.597 
06:00	35.2	35.2	35.2	85	31.2	0	2	248	0.00	29.598 
06:05	35.6	35.6	35.6	84	31.3	1	4	248	0.00	29.597 
06:10	36.0	36.0	36.0	83	31.3	1	4	248	0.00	29.596 
06:15	36.5	36.5	36.5	83	31.8	1	4	248	0.00	29.596 
06:20	36.9	36.9	36.9	82	31.9	1	5	248	0.00	29.599 
06:25	37.3	37.3	37.3	82	32.3	1	4	248	0.00	29.598 
06:30	37.6	37.6	37.6	82	32.6	2	3	225	0.00	29.597 
06:35	38.2	38.2	38.2	82	33.2	2	5	248	0.00	29.600 
06:40	38.6	38.6	38.6	82	33.6	2	7	248	0.00	29.602 
06:45	39.2	39.2	39.2	82	34.2	3	7	248	0.00	29.605 
06:50	39.8	37.1	39.8	81	34.5	4	10	248	0.00	29.606 
06:55	40.2	37.5	40.2	81	34.8	4	10	248	0.00	29.608 
07:00	40.5	37.1	40.5	80	34.8	5	10	248	0.00	29.609 
07:05	40.5	37.9	40.5	80	34.8	4	10	248	0.00	29.612 
07:10	40.5	40.5	40.5	80	34.8	3	7	270	0.00	29.616 
07:15	40.6	38.0	40.6	80	34.9	4	10	248	0.00	29.618 
07:20	40.8	40.8	40.8	80	35.1	3	9	248	0.00	29.621 
07:25	41.1	37.8	41.1	80	35.4	5	12	270	0.00	29.621 
07:30	41.1	41.1	41.1	80	35.4	3	7	270	0.00	29.624 
07:35	41.1	41.1	41.1	80	35.4	3	8	270	0.00	29.628 
07:40	41.1	38.6	41.1	80	35.4	4	9	270	0.00	29.631 
07:45	41.1	38.6	41.1	80	35.4	4	11	248	0.00	29.633 
07:50	41.1	38.6	41.1	80	35.4	4	13	270	0.00	29.633 
07:55	40.9	37.5	40.9	80	35.2	5	13	270	0.00	29.635 
08:00	40.9	38.4	40.9	80	35.2	4	8	270	0.00	29.638 
08:05	40.8	38.2	40.8	80	35.1	4	11	270	0.00	29.640 
08:10	40.6	38.0	40.6	80	34.9	4	11	270	0.00	29.641 
08:15	40.6	38.0	40.6	80	34.9	4	12	270	0.00	29.644 
08:20	40.6	38.0	40.6	80	34.9	4	9	270	0.00	29.644 
08:25	40.6	40.6	40.6	80	34.9	3	10	270	0.00	29.650 
08:30	40.9	37.5	40.9	79	34.9	5	11	248	0.00	29.652 
08:35	41.1	41.1	41.1	79	35.1	3	10	248	0.00	29.653 
08:40	41.2	38.7	41.2	78	34.9	4	12	270	0.00	29.656 
08:45	41.3	38.8	41.3	77	34.6	4	13	248	0.00	29.658 
08:50	41.6	41.6	41.6	77	34.9	3	6	270	0.00	29.657 
08:55	41.6	41.6	41.6	76	34.6	3	7	270	0.00	29.659 
09:00	41.6	39.2	41.6	76	34.6	4	10	248	0.00	29.666 
09:05	41.6	39.2	41.6	76	34.6	4	10	270	0.00	29.668 
09:10	41.6	39.2	41.6	76	34.6	4	10	270	0.00	29.671 
09:15	41.8	39.4	41.8	75	34.5	4	8	270	0.00	29.671 
09:20	41.8	39.4	41.8	75	34.5	4	10	270	0.00	29.671 
09:25	41.9	41.9	41.9	75	34.6	3	6	270	0.00	29.672 
09:30	42.2	42.2	42.2	75	34.9	3	6	270	0.00	29.673 
09:35	42.3	42.3	42.3	74	34.6	3	7	270	0.00	29.674 
09:40	42.5	42.5	42.5	74	34.8	3	9	270	0.00	29.675 
09:45	42.5	42.5	42.5	73	34.5	3	6	270	0.00	29.675 
09:50	42.5	42.5	42.5	74	34.8	3	9	270	0.00	29.676 
09:55	42.5	42.5	42.5	74	34.8	3	9	248	0.00	29.678 
10:00	42.6	42.6	42.6	74	34.9	3	7	270	0.00	29.677 
10:05	42.8	42.8	42.8	73	34.8	3	10	270	0.00	29.679 
10:10	42.9	40.7	42.9	73	34.9	4	10	270	0.00	29.681 
10:15	42.9	40.7	42.9	73	34.9	4	10	270	0.00	29.679 
10:20	43.1	40.9	43.1	73	35.0	4	11	270	0.00	29.684 
10:25	43.3	43.3	43.3	73	35.2	3	8	270	0.00	29.684 
10:30	43.6	43.6	43.6	72	35.2	3	9	270	0.00	29.684 
10:35	44.1	44.1	44.1	72	35.7	3	10	270	0.00	29.686 
10:40	44.1	42.1	44.1	71	35.3	4	9	248	0.00	29.687 
10:45	44.3	44.3	44.3	71	35.5	3	10	270	0.00	29.690 
10:50	44.8	44.8	44.8	70	35.6	3	13	270	0.00	29.690 
10:55	44.8	42.1	44.8	70	35.6	5	14	248	0.00	29.694 
11:00	44.9	42.2	44.9	71	36.1	5	13	270	0.00	29.698 
11:05	45.4	42.8	45.4	69	35.8	5	11	270	0.00	29.699 
11:10	46.0	44.2	46.0	69	36.4	4	15	270	0.00	29.699 
11:15	46.2	43.8	46.2	70	37.0	5	11	270	0.00	29.701 
11:20	46.4	43.4	46.4	69	36.8	6	13	270	0.00	29.700 
11:25	46.5	44.1	46.5	69	36.9	5	11	270	0.00	29.699 
11:30	46.7	45.1	46.7	68	36.7	4	11	270	0.00	29.698 
11:35	46.7	43.2	46.7	68	36.7	7	14	270	0.00	29.699 
11:40	46.5	43.5	46.5	68	36.5	6	14	270	0.00	29.699 
11:45	46.5	44.1	46.5	69	36.9	5	11	270	0.00	29.699 
11:50	47.1	47.1	47.1	69	37.5	3	6	270	0.00	29.700 
11:55	47.1	45.5	47.1	69	37.5	4	15	270	0.00	29.699 
12:00	47.7	47.7	47.7	69	38.0	3	7	270	0.00	29.699 
12:05	48.0	46.6	48.0	68	37.9	4	12	270	0.00	29.698 
12:10	48.8	48.8	48.8	66	38.0	3	10	270	0.00	29.699 
12:15	48.5	45.9	48.5	66	37.7	6	13	270	0.00	29.699 
12:20	48.6	46.6	48.6	68	38.5	5	13	270	0.00	29.700 
12:25	49.2	47.9	49.2	67	38.7	4	11	270	0.00	29.699 
12:30	49.4	47.5	49.4	67	38.9	5	12	270	0.00	29.701 
12:35	49.5	47.6	49.5	66	38.6	5	14	270	0.00	29.697 
12:40	49.9	48.1	49.9	66	39.0	5	13	270	0.00	29.701 
12:45	49.9	47.5	49.9	65	38.6	6	16	270	0.00	29.700 
12:50	49.6	46.7	49.6	66	38.7	7	17	270	0.00	29.701 
12:55	50.1	50.1	50.1	66	39.2	5	14	270	0.00	29.704 
13:00	50.2	50.2	50.2	66	39.3	4	8	270	0.00	29.704 
13:05	50.2	50.2	50.2	66	39.3	5	10	270	0.00	29.710 
13:10	50.4	50.4	50.4	65	39.1	5	12	270	0.00	29.706 
13:15	50.4	50.4	50.4	66	39.5	5	14	270	0.00	29.709 
13:20	50.5	50.5	50.5	65	39.2	5	10	270	0.00	29.711 
13:25	50.5	50.5	50.5	65	39.2	5	16	270	0.00	29.712 
13:30	50.8	50.8	50.8	66	39.9	4	9	270	0.00	29.714 
13:35	50.8	50.8	50.8	65	39.5	5	16	270	0.00	29.713 
13:40	51.0	51.0	51.0	66	40.0	5	14	270	0.00	29.712 
13:45	51.6	51.6	51.6	65	40.2	4	10	270	0.00	29.714 
13:50	51.9	51.9	51.9	63	39.7	5	13	270	0.00	29.712 
13:55	52.0	52.0	52.0	63	39.8	5	12	270	0.00	29.710 
14:00	52.2	52.2	52.2	63	40.0	5	9	270	0.00	29.710 
14:05	52.2	52.2	52.2	62	39.6	5	11	270	0.00	29.710 
14:10	52.3	52.3	52.3	62	39.7	4	11	270	0.00	29.710 
14:15	52.3	52.3	52.3	60	38.8	4	10	270	0.00	29.711 
14:20	52.5	52.5	52.5	61	39.4	5	10	270	0.00	29.711 
14:25	52.8	52.8	52.8	60	39.3	3	7	270	0.00	29.711 
14:30	52.8	52.8	52.8	59	38.9	4	14	270	0.00	29.711 
14:35	52.5	52.5	52.5	60	39.0	4	9	270	0.00	29.711 
14:40	52.9	52.9	52.9	58	38.5	4	8	248	0.00	29.712 
14:45	53.3	53.3	53.3	60	39.8	3	10	270	0.00	29.713 
14:50	53.6	53.6	53.6	58	39.2	3	9	270	0.00	29.711 
14:55	53.5	53.5	53.5	58	39.1	4	8	270	0.00	29.713 
15:00	53.6	53.6	53.6	58	39.2	4	10	270	0.00	29.711 
15:05	53.6	53.6	53.6	57	38.7	5	12	270	0.00	29.710 
15:10	54.2	54.2	54.2	58	39.7	2	6	248	0.00	29.710 
15:15	54.4	54.4	54.4	57	39.5	3	6	270	0.00	29.710 
15:20	54.4	54.4	54.4	56	39.0	3	11	270	0.00	29.711 
15:25	54.4	54.4	54.4	56	39.0	4	10	248	0.00	29.712 
15:30	54.5	54.5	54.5	56	39.1	3	7	248	0.00	29.713 
15:35	54.7	54.7	54.7	55	38.9	4	11	248	0.00	29.722 
15:40	54.5	54.5	54.5	55	38.7	4	11	270	0.00	29.723 
15:45	54.4	54.4	54.4	56	39.0	3	10	248	0.00	29.725 
15:50	54.5	54.5	54.5	55	38.7	4	9	248	0.00	29.725 
15:55	54.7	54.7	54.7	55	38.9	4	10	270	0.00	29.725 
16:00	54.8	54.8	54.8	54	38.5	3	11	270	0.00	29.724 
16:05	55.0	55.0	55.0	53	38.2	3	7	270	0.00	29.725 
16:10	55.0	55.0	55.0	56	39.6	1	3	292	0.00	29.725 
16:15	55.0	55.0	55.0	53	38.2	3	8	270	0.00	29.728 
16:20	55.0	55.0	55.0	53	38.2	3	7	248	0.00	29.730 
16:25	54.8	54.8	54.8	54	38.5	3	9	248	0.00	29.729 
16:30	55.1	55.1	55.1	54	38.8	1	4	248	0.00	29.729 
16:35	55.1	55.1	55.1	54	38.8	3	6	270	0.00	29.734 
16:40	55.3	55.3	55.3	51	37.5	3	7	248	0.00	29.734 
16:45	55.3	55.3	55.3	52	38.0	2	9	270	0.00	29.729 
16:50	55.1	55.1	55.1	51	37.3	4	9	248	0.00	29.733 
16:55	55.0	55.0	55.0	51	37.2	3	11	270	0.00	29.734 
17:00	55.0	55.0	55.0	52	37.7	2	4	248	0.00	29.738 
17:05	54.8	54.8	54.8	51	37.0	4	10	270	0.00	29.734 
17:10	54.7	54.7	54.7	51	36.9	3	6	248	0.00	29.732 
17:15	54.7	54.7	54.7	52	37.4	2	5	270	0.00	29.734 
17:20	54.5	54.5	54.5	51	36.7	2	5	248	0.00	29.735 
17:25	54.5	54.5	54.5	49	35.7	2	7	248	0.00	29.736 
17:30	54.4	54.4	54.4	50	36.2	1	6	292	0.00	29.739 
17:35	54.4	54.4	54.4	48	35.1	1	4	248	0.00	29.739 
17:40	54.2	54.2	54.2	48	34.9	2	8	270	0.00	29.741 
17:45	54.1	54.1	54.1	47	34.3	3	6	248	0.00	29.742 
17:50	53.9	53.9	53.9	48	34.7	2	4	248	0.00	29.743 
17:55	53.8	53.8	53.8	50	35.6	3	7	248	0.00	29.743 
18:00	53.5	53.5	53.5	51	35.8	1	3	248	0.00	29.748 
18:05	53.1	53.1	53.1	51	35.5	1	5	248	0.00	29.742 
18:10	52.8	52.8	52.8	52	35.7	1	4	248	0.00	29.746 
18:15	52.6	52.6	52.6	53	36.0	1	5	248	0.00	29.748 
18:20	52.3	52.3	52.3	54	36.2	0	3	248	0.00	29.750 
18:25	52.0	52.0	52.0	54	35.9	0	2	248	0.00	29.752 
18:30	51.7	51.7	51.7	55	36.1	0	1	248	0.00	29.752 
18:35	51.3	51.3	51.3	56	36.1	0	2	248	0.00	29.751 
18:40	50.8	50.8	50.8	57	36.1	0	0	---	0.00	29.752 
18:45	50.4	50.4	50.4	58	36.2	0	1	248	0.00	29.754 
18:50	50.1	50.1	50.1	60	36.8	0	1	248	0.00	29.754 
18:55	49.8	49.8	49.8	60	36.5	0	0	---	0.00	29.753 
19:00	49.5	49.5	49.5	61	36.6	0	0	---	0.00	29.754 
19:05	49.2	49.2	49.2	62	36.7	0	0	---	0.00	29.753 
19:10	48.8	48.8	48.8	63	36.8	0	0	---	0.00	29.753 
19:15	48.5	48.5	48.5	64	36.9	0	0	---	0.00	29.754 
19:20	48.0	48.0	48.0	64	36.4	0	0	---	0.00	29.756 
19:25	47.7	47.7	47.7	65	36.5	0	0	---	0.00	29.757 
19:30	47.4	47.4	47.4	65	36.2	0	0	---	0.00	29.761 
19:35	47.1	47.1	47.1	66	36.3	0	0	---	0.00	29.761 
19:40	46.8	46.8	46.8	66	36.0	0	0	---	0.00	29.762 
19:45	46.7	46.7	46.7	67	36.3	0	0	---	0.00	29.761 
19:50	46.5	46.5	46.5	67	36.1	0	0	---	0.00	29.761 
19:55	46.4	46.4	46.4	68	36.4	0	0	---	0.00	29.763 
20:00	46.2	46.2	46.2	68	36.2	0	0	---	0.00	29.762 
20:05	46.2	46.2	46.2	68	36.2	0	0	---	0.00	29.762 
20:10	46.0	46.0	46.0	68	36.0	0	0	---	0.00	29.762 
20:15	45.8	45.8	45.8	69	36.2	0	0	---	0.00	29.764 
20:20	45.7	45.7	45.7	69	36.1	0	0	---	0.00	29.766 
20:25	45.7	45.7	45.7	69	36.1	0	1	248	0.00	29.767 
20:30	45.5	45.5	45.5	69	35.9	0	0	---	0.00	29.764 
20:35	45.5	45.5	45.5	69	35.9	0	0	---	0.00	29.763 
20:40	45.4	45.4	45.4	69	35.8	0	0	---	0.00	29.765 
20:45	45.5	45.5	45.5	69	35.9	0	0	---	0.00	29.762 
20:50	45.5	45.5	45.5	69	35.9	0	0	---	0.00	29.760 
20:55	45.4	45.4	45.4	69	35.8	0	0	---	0.00	29.761 
21:00	45.4	45.4	45.4	69	35.8	0	0	---	0.00	29.759 
21:05	45.2	45.2	45.2	69	35.6	0	0	---	0.00	29.756 
21:10	45.1	45.1	45.1	69	35.5	0	0	---	0.00	29.757 
21:15	44.9	44.9	44.9	69	35.4	0	0	---	0.00	29.759 
21:20	44.8	44.8	44.8	70	35.6	0	0	---	0.00	29.760 
21:25	44.6	44.6	44.6	70	35.4	0	0	---	0.00	29.761 
21:30	44.5	44.5	44.5	71	35.7	0	0	---	0.00	29.760 
21:35	44.3	44.3	44.3	71	35.5	0	0	---	0.00	29.760 
21:40	44.2	44.2	44.2	71	35.4	0	0	---	0.00	29.759 
21:45	44.1	44.1	44.1	72	35.7	0	0	---	0.00	29.757 
21:50	43.9	43.9	43.9	72	35.5	0	0	---	0.00	29.756 
21:55	43.9	43.9	43.9	73	35.8	0	0	---	0.00	29.755 
22:00	43.9	43.9	43.9	73	35.8	0	0	---	0.00	29.751 
22:05	43.8	43.8	43.8	73	35.7	0	0	---	0.00	29.747 
22:10	43.6	43.6	43.6	74	35.9	0	0	---	0.00	29.744 
22:15	43.5	43.5	43.5	74	35.8	0	0	---	0.00	29.744 
22:20	43.3	43.3	43.3	74	35.6	0	1	248	0.00	29.743 
22:25	43.6	43.6	43.6	74	35.9	0	1	248	0.00	29.739 
22:30	44.3	44.3	44.3	72	35.9	0	1	248	0.00	29.737 
22:35	44.9	44.9	44.9	71	36.1	0	1	248	0.00	29.736 
22:40	45.1	45.1	45.1	71	36.3	0	0	---	0.00	29.736 
22:45	45.1	45.1	45.1	71	36.3	0	0	---	0.00	29.737 
22:50	44.9	44.9	44.9	71	36.1	0	1	248	0.00	29.741 
22:55	44.6	44.6	44.6	72	36.1	0	1	248	0.00	29.741 
23:00	44.5	44.5	44.5	73	36.4	0	0	---	0.00	29.737 
23:05	44.5	44.5	44.5	73	36.4	0	1	248	0.00	29.735 
23:10	44.6	44.6	44.6	72	36.1	0	0	---	0.00	29.732 
23:15	44.9	44.9	44.9	72	36.4	0	1	248	0.00	29.733 
23:20	44.9	44.9	44.9	71	36.1	0	1	248	0.00	29.730 
23:25	45.1	45.1	45.1	71	36.3	0	1	248	0.00	29.733 
23:30	45.4	45.4	45.4	71	36.6	0	2	248	0.00	29.731 
23:35	45.7	45.7	45.7	70	36.5	1	4	270	0.00	29.731 
23:40	46.0	46.0	46.0	69	36.4	0	4	248	0.00	29.729 
23:45	46.1	46.1	46.1	70	36.9	1	4	248	0.00	29.728 
23:50	46.4	46.4	46.4	70	37.2	1	4	248	0.00	29.729 
23:55	46.5	46.5	46.5	70	37.3	1	6	248	0.00	29.730 

CoCoRaHS
IN-AL-39
A2 Web Hosting
Creative Commons License
GoDaddy
Look for:

loaded 2017-10-17 22:06:32 • last modified 2010-11-18 10:43:29
Privacy PolicyDisclaimer
• wx.awcolley.com is powered by PmWiki v.2002016 •
• all content (unless otherwise noted) © 2017 A W Colley